Ottawa, Ontario

6:24 AM EDT on March 28, 2017 (GMT -0400)
Ottawa-Macdonald-Cartier International | | Change Station
Active Advisory: Special Weather Statement

Elev 374 ft 45.32 °N, 75.67 °W | Updated 24 minutes ago

Light Rain
Light Rain Mist
34 °F
Feels Like 29 °F
N
6
Wind Variable Wind from NNW

Today
High -- | Low -- °F
--% Chance of Precip.
Yesterday
High -- | Low -- °F
Precip. -- in
Pressure 29.90 in
Visibility 0.8 miles
Clouds Overcast 800 ft
Windchill 29 °F
Dew Point 34 °F
Humidity 100%
Rainfall 0.00 in
Snow Depth Not available.
6:50 AM 7:25 PM
New Moon, 0% visible
METAR CYOW 281000Z 34005KT 3/4SM R32/5000FT/U R07/5000VP6000FT/U -RA BR OVC008 01/01 A2988 RMK FG2ST6 SLP125
Pressure 29.90 in
Visibility 0.8 miles
Clouds Overcast 800 ft
Windchill 29 °F
Dew Point 34 °F
Humidity 100%
Rainfall 0.00 in
Snow Depth Not available.
6:50 AM 7:25 PM
New Moon, 0% visible
METAR CYOW 281000Z 34005KT 3/4SM R32/5000FT/U R07/5000VP6000FT/U -RA BR OVC008 01/01 A2988 RMK FG2ST6 SLP125

Get Severe Weather Alerts

Thanks for signing up!

Be on the lookout for a verification email in your inbox.

You'll start receiving the daily forecast at 8 AM.

×

10-Day Weather Forecast

Almanac

Astronomy

Mar. 28, 2017 Rise Set
Actual Time
Civil Twilight
Nautical Twilight
Astronomical Twilight
Moon
Length of Visible Light
Length of Day
Tomorrow will be .
, % of the Moon is Illuminated

Today's Extremes

Country Highs Country Lows

Community

WunderPhotos

Upload Photos

1,962,540 photos uploaded!

WunderBlog® & News

Nearby

Air Quality

  Air Quality AQ Index Pollutant
Not available.

Snow Depth

Station Depth Elevation

Earthquake Activity

City Distance Mag. Time & Date
Minimum magnitude displayed is 2.5.

Earthquake Activity

City Distance Mag. Time & Date
Minimum magnitude displayed is 2.5.

Coastal Water Temperatures

Place Temperature

Stations

Nearby Weather Stations

Station Location Temp. Windchill Dew Point Humidity Wind Precip. Elev Updated Type
                   

Watches & Warnings

Special Weather Statement
Issued: Environment Canada
Special Weather Statement issued by Environment.  07:11 PM EDT Monday 27 March 2017.
Widespread fog is affecting most of Eastern Ontario tonight. Some dense fog with near zero visibility is expected as well. The foggy conditions are likely to persist in most locales until Tuesday morning.

###

Fog advisories are issued when near zero visibilities in fog are expected or occurring.

Please continue to monitor alerts and forecasts issued by Environment Canada. To report severe weather, send an email to ec.cpio-tempetes-ospc-storms.ec@canada.ca or tweet reports using #ONStorm.
expires_epoch:1490723998